createdAt,value
2018-01-28T00:00:30.134Z,81.82
2018-01-28T00:02:57.709Z,81.54
2018-01-28T00:05:25.264Z,81.44
2018-01-28T00:07:52.862Z,81.38
2018-01-28T00:10:20.449Z,81.46
2018-01-28T00:12:48.097Z,81.36
2018-01-28T00:15:15.734Z,82.20
2018-01-28T00:17:43.362Z,82.85
2018-01-28T00:20:10.992Z,83.22
2018-01-28T00:22:38.766Z,83.33
2018-01-28T00:25:06.313Z,82.84
2018-01-28T00:27:33.862Z,82.64
2018-01-28T00:30:01.418Z,83.11
2018-01-28T00:32:29.036Z,83.51
2018-01-28T00:34:56.625Z,83.46
2018-01-28T00:37:24.174Z,83.03
2018-01-28T00:39:51.723Z,82.96
2018-01-28T00:42:19.286Z,82.67
2018-01-28T00:44:46.835Z,82.65
2018-01-28T00:47:14.438Z,82.48
2018-01-28T00:49:41.992Z,82.35
2018-01-28T00:52:09.546Z,82.48
2018-01-28T00:54:37.102Z,82.69
2018-01-28T00:57:04.824Z,83.37
2018-01-28T00:59:32.632Z,83.53
2018-01-28T01:02:00.182Z,83.43
2018-01-28T01:04:27.793Z,82.86
2018-01-28T01:06:55.350Z,82.83
2018-01-28T01:09:22.898Z,82.65
2018-01-28T01:11:50.506Z,82.56
2018-01-28T01:14:18.050Z,82.47
2018-01-28T01:16:45.606Z,82.09
2018-01-28T01:19:13.165Z,81.98
2018-01-28T01:21:40.722Z,82.01
2018-01-28T01:24:08.310Z,81.80
2018-01-28T01:26:36.028Z,81.85
2018-01-28T01:29:03.653Z,81.55
2018-01-28T01:31:31.243Z,81.53
2018-01-28T01:33:58.786Z,82.39
2018-01-28T01:36:26.502Z,82.74
2018-01-28T01:38:54.049Z,82.40
2018-01-28T01:41:21.591Z,82.07
2018-01-28T01:43:49.145Z,81.59
2018-01-28T01:46:17.671Z,81.77
2018-01-28T01:48:45.401Z,82.07
2018-01-28T01:51:13.213Z,82.50
2018-01-28T01:53:41.029Z,82.74
2018-01-28T01:56:08.583Z,82.67
2018-01-28T01:58:36.130Z,82.47
2018-01-28T02:01:03.777Z,82.62
2018-01-28T02:03:31.407Z,83.03
2018-01-28T02:05:58.958Z,82.99
2018-01-28T02:08:26.524Z,82.99
2018-01-28T02:10:54.071Z,83.10
2018-01-28T02:13:21.726Z,83.32
2018-01-28T02:15:49.390Z,83.33
2018-01-28T02:18:17.004Z,83.06
2018-01-28T02:20:44.580Z,83.11
2018-01-28T02:23:12.134Z,83.33
2018-01-28T02:25:39.734Z,83.32
2018-01-28T02:28:07.286Z,83.42
2018-01-28T02:30:34.830Z,83.06
2018-01-28T02:33:02.386Z,83.79
2018-01-28T02:35:30.096Z,83.97
2018-01-28T02:37:57.686Z,83.18
2018-01-28T02:40:25.466Z,82.60
2018-01-28T02:42:53.017Z,82.37
2018-01-28T02:45:20.565Z,82.45
2018-01-28T02:47:48.109Z,82.31
2018-01-28T02:50:15.936Z,82.21
2018-01-28T02:52:43.484Z,81.83
2018-01-28T02:55:11.045Z,81.49
2018-01-28T02:57:38.605Z,81.08
2018-01-28T03:00:06.146Z,81.41
2018-01-28T03:02:33.733Z,81.54
2018-01-28T03:05:01.442Z,81.43
2018-01-28T03:07:29.160Z,81.23
2018-01-28T03:09:56.879Z,81.13
2018-01-28T03:12:24.495Z,81.21
2018-01-28T03:14:52.222Z,81.66
2018-01-28T03:17:19.785Z,81.68
2018-01-28T03:19:47.329Z,81.63
2018-01-28T03:22:14.874Z,82.12
2018-01-28T03:24:42.430Z,82.52
2018-01-28T03:27:09.988Z,83.76
2018-01-28T03:29:37.553Z,84.30
2018-01-28T03:32:05.178Z,84.31
2018-01-28T03:34:32.753Z,83.34
2018-01-28T03:37:00.346Z,82.77
2018-01-28T03:39:28.062Z,82.29
2018-01-28T03:41:55.809Z,81.86
2018-01-28T03:44:23.402Z,81.80
2018-01-28T03:46:50.942Z,81.51
2018-01-28T03:49:18.521Z,81.51
2018-01-28T03:51:46.074Z,81.42
2018-01-28T03:54:13.617Z,82.33
2018-01-28T03:56:41.229Z,83.10
2018-01-28T03:59:08.769Z,83.09
2018-01-28T04:01:36.553Z,83.55
2018-01-28T04:04:04.126Z,84.09
2018-01-28T04:06:31.887Z,83.46
2018-01-28T04:08:59.610Z,82.89
2018-01-28T04:11:27.151Z,82.49
2018-01-28T04:13:54.847Z,82.69
2018-01-28T04:16:22.453Z,82.49
2018-01-28T04:18:49.994Z,82.12
2018-01-28T04:21:17.585Z,81.95
2018-01-28T04:23:45.126Z,81.92
2018-01-28T04:26:12.834Z,81.73
2018-01-28T04:28:40.382Z,81.50
2018-01-28T04:31:07.926Z,81.46
2018-01-28T04:33:35.582Z,81.18
2018-01-28T04:36:03.133Z,81.85
2018-01-28T04:38:30.674Z,81.72
2018-01-28T04:40:58.342Z,81.71
2018-01-28T04:43:25.894Z,81.61
2018-01-28T04:45:53.673Z,81.56
2018-01-28T04:48:21.226Z,81.75
2018-01-28T04:50:48.778Z,81.97
2018-01-28T04:53:16.430Z,82.60
2018-01-28T04:55:43.986Z,82.04
2018-01-28T04:58:11.722Z,81.66
2018-01-28T05:00:39.337Z,81.81
2018-01-28T05:03:06.882Z,81.80
2018-01-28T05:05:34.462Z,81.40
2018-01-28T05:08:02.078Z,81.22
2018-01-28T05:10:29.754Z,81.24
2018-01-28T05:12:57.410Z,80.85
2018-01-28T05:15:25.090Z,80.71
2018-01-28T05:17:52.633Z,81.70
2018-01-28T05:20:20.422Z,82.23
2018-01-28T05:22:47.994Z,81.67
2018-01-28T05:25:15.582Z,81.67
2018-01-28T05:27:43.190Z,81.60
2018-01-28T05:30:10.732Z,81.50
2018-01-28T05:32:38.411Z,81.02
2018-01-28T05:35:06.034Z,80.90
2018-01-28T05:37:33.625Z,80.86
2018-01-28T05:40:01.265Z,80.86
2018-01-28T05:42:28.878Z,80.80
2018-01-28T05:44:56.497Z,80.88
2018-01-28T05:47:24.128Z,80.65
2018-01-28T05:49:51.722Z,80.70
2018-01-28T05:52:19.268Z,80.63
2018-01-28T05:54:46.817Z,80.62
2018-01-28T05:57:14.466Z,80.41
2018-01-28T05:59:42.114Z,80.39
2018-01-28T06:02:09.730Z,80.43
2018-01-28T06:04:37.346Z,80.44
2018-01-28T06:07:04.890Z,80.42
2018-01-28T06:09:32.678Z,80.31
2018-01-28T06:12:00.396Z,79.99
2018-01-28T06:14:28.114Z,79.53
2018-01-28T06:16:55.683Z,78.99
2018-01-28T06:19:23.354Z,78.35
2018-01-28T06:21:51.168Z,78.12
2018-01-28T06:24:18.744Z,77.81
2018-01-28T06:26:46.510Z,77.68
2018-01-28T06:29:14.088Z,77.89
2018-01-28T06:31:41.634Z,77.62
2018-01-28T06:34:09.263Z,76.45
2018-01-28T06:36:36.986Z,76.55
2018-01-28T06:39:04.610Z,76.32
2018-01-28T06:41:32.186Z,75.79
2018-01-28T06:43:59.764Z,74.72
2018-01-28T06:46:27.547Z,73.61
2018-01-28T06:48:55.271Z,73.52
2018-01-28T06:51:23.086Z,72.69
2018-01-28T06:53:50.665Z,72.38
2018-01-28T06:56:18.421Z,71.80
2018-01-28T06:58:46.138Z,71.63
2018-01-28T07:01:13.809Z,71.13
2018-01-28T07:03:41.410Z,70.38
2018-01-28T07:06:08.965Z,70.51
2018-01-28T07:08:36.667Z,69.67
2018-01-28T07:11:04.224Z,69.70
2018-01-28T07:13:31.863Z,68.31
2018-01-28T07:15:59.453Z,68.38
2018-01-28T07:18:27.006Z,67.14
2018-01-28T07:20:54.575Z,66.35
2018-01-28T07:23:22.126Z,66.23
2018-01-28T07:25:49.734Z,65.25
2018-01-28T07:28:17.458Z,64.21
2018-01-28T07:30:45.000Z,62.72
2018-01-28T07:33:12.542Z,61.50
2018-01-28T07:35:40.310Z,60.89
2018-01-28T07:38:07.855Z,61.56
2018-01-28T07:40:35.740Z,62.01
2018-01-28T07:43:03.273Z,62.70
2018-01-28T07:45:30.946Z,62.76
2018-01-28T07:47:58.490Z,60.41
2018-01-28T07:50:26.042Z,55.68
2018-01-28T07:52:53.666Z,52.79
2018-01-28T07:55:21.236Z,50.59
2018-01-28T07:57:48.810Z,48.61
2018-01-28T08:00:16.383Z,47.02
2018-01-28T08:02:44.013Z,44.90
2018-01-28T08:05:11.594Z,43.43
2018-01-28T08:07:39.194Z,42.53
2018-01-28T08:13:13.537Z,39.15
2018-01-28T08:15:41.234Z,37.95
2018-01-28T08:18:08.809Z,37.58
2018-01-28T08:20:36.352Z,37.67
2018-01-28T08:23:04.146Z,36.67
2018-01-28T08:25:31.738Z,36.30
2018-01-28T08:28:03.282Z,35.97
2018-01-28T08:30:30.842Z,35.29
2018-01-28T08:32:58.414Z,34.80
2018-01-28T08:35:26.030Z,34.49
2018-01-28T08:37:53.771Z,34.11
2018-01-28T08:40:21.394Z,33.94
2018-01-28T08:42:48.987Z,34.81
2018-01-28T08:45:16.529Z,35.01
2018-01-28T08:47:44.152Z,35.41
2018-01-28T08:50:11.731Z,34.91
2018-01-28T08:52:39.359Z,34.51
2018-01-28T08:55:07.227Z,34.48
2018-01-28T08:57:34.785Z,34.24
2018-01-28T09:00:02.338Z,35.25
2018-01-28T09:02:29.874Z,35.31
2018-01-28T09:04:57.462Z,35.17
2018-01-28T09:07:25.118Z,35.84
2018-01-28T09:09:52.708Z,35.23
2018-01-28T09:12:20.269Z,34.56
2018-01-28T09:14:47.810Z,33.82
2018-01-28T09:17:15.350Z,33.71
2018-01-28T09:19:42.898Z,33.89
2018-01-28T09:22:10.622Z,34.20
2018-01-28T09:24:38.339Z,34.79
2018-01-28T09:27:05.914Z,35.92
2018-01-28T09:29:33.578Z,35.99
2018-01-28T09:32:01.119Z,35.58
2018-01-28T09:34:28.911Z,34.79
2018-01-28T09:36:56.535Z,34.08
2018-01-28T09:39:24.081Z,33.26
2018-01-28T09:41:51.638Z,33.10
2018-01-28T09:44:19.177Z,33.28
2018-01-28T09:46:46.796Z,34.41
2018-01-28T09:49:14.394Z,34.06
2018-01-28T09:51:42.135Z,34.05
2018-01-28T09:54:09.827Z,33.94
2018-01-28T09:56:37.382Z,34.09
2018-01-28T09:59:05.218Z,33.62
2018-01-28T10:01:32.802Z,33.04
2018-01-28T10:04:00.524Z,33.25
2018-01-28T10:06:28.075Z,33.52
2018-01-28T10:08:55.610Z,33.09
2018-01-28T10:11:23.192Z,33.09
2018-01-28T10:13:50.995Z,33.62
2018-01-28T10:16:18.623Z,33.85
2018-01-28T10:18:46.169Z,34.29
2018-01-28T10:21:14.854Z,34.80
2018-01-28T10:23:42.438Z,34.81
2018-01-28T10:26:09.980Z,33.76
2018-01-28T10:28:37.518Z,33.27
2018-01-28T10:31:05.066Z,33.33
2018-01-28T10:33:32.610Z,33.53
2018-01-28T10:36:00.362Z,33.12
2018-01-28T10:38:27.907Z,34.08
2018-01-28T10:43:31.751Z,34.17
2018-01-28T10:45:59.293Z,34.06
2018-01-28T10:48:26.874Z,34.53
2018-01-28T10:50:54.595Z,32.91
2018-01-28T10:53:22.193Z,34.01
2018-01-28T10:55:49.832Z,33.18
2018-01-28T10:58:17.434Z,33.99
2018-01-28T11:00:45.022Z,33.74
2018-01-28T11:03:12.882Z,34.27
2018-01-28T11:05:40.511Z,33.41
2018-01-28T11:08:08.058Z,33.68
2018-01-28T11:10:35.602Z,33.73
2018-01-28T11:13:03.190Z,33.68
2018-01-28T11:15:30.875Z,32.72
2018-01-28T11:17:58.409Z,31.92
2018-01-28T11:20:25.978Z,31.19
2018-01-28T11:22:53.563Z,30.40
2018-01-28T11:25:21.346Z,30.46
2018-01-28T11:27:48.897Z,30.28
2018-01-28T11:30:16.883Z,29.44
2018-01-28T11:32:44.430Z,29.64
2018-01-28T11:35:12.467Z,30.06
2018-01-28T11:37:40.312Z,29.81
2018-01-28T11:40:08.139Z,29.03
2018-01-28T11:42:35.694Z,28.01
2018-01-28T11:45:03.274Z,29.74
2018-01-28T11:47:31.177Z,29.79
2018-01-28T11:49:59.004Z,29.10
2018-01-28T11:52:26.651Z,28.92
2018-01-28T11:54:54.365Z,28.43
2018-01-28T11:57:22.766Z,28.08
2018-01-28T11:59:50.490Z,28.24
2018-01-28T12:02:18.069Z,28.05
2018-01-28T12:04:45.602Z,28.52
2018-01-28T12:07:13.138Z,28.50
2018-01-28T12:09:40.694Z,28.92
2018-01-28T12:12:08.242Z,28.39
2018-01-28T12:14:35.830Z,28.27
2018-01-28T12:17:03.362Z,28.72
2018-01-28T12:19:30.898Z,28.10
2018-01-28T12:21:58.442Z,27.04
2018-01-28T12:24:25.974Z,26.48
2018-01-28T12:26:53.566Z,26.18
2018-01-28T12:29:21.223Z,26.48
2018-01-28T12:31:48.794Z,26.58
2018-01-28T12:34:16.378Z,25.53
2018-01-28T12:36:43.922Z,25.88
2018-01-28T12:39:11.529Z,25.52
2018-01-28T12:41:39.066Z,26.08
2018-01-28T12:44:06.602Z,25.59
2018-01-28T12:46:34.146Z,26.17
2018-01-28T12:49:01.681Z,27.65
2018-01-28T12:51:29.475Z,27.19
2018-01-28T12:53:57.070Z,25.98
2018-01-28T12:56:24.609Z,26.47
2018-01-28T12:58:52.333Z,25.38
2018-01-28T13:01:19.873Z,25.71
2018-01-28T13:03:47.466Z,25.18
2018-01-28T13:06:15.012Z,25.60
2018-01-28T13:08:42.555Z,26.30
2018-01-28T13:11:10.110Z,25.73
2018-01-28T13:13:37.650Z,25.07
2018-01-28T13:16:05.237Z,24.88
2018-01-28T13:18:32.775Z,24.22
2018-01-28T13:21:00.318Z,25.39
2018-01-28T13:23:27.866Z,25.09
2018-01-28T13:25:55.408Z,25.68
2018-01-28T13:28:23.002Z,24.69
2018-01-28T13:30:50.713Z,25.04
2018-01-28T13:33:18.258Z,25.38
2018-01-28T13:35:45.858Z,25.22
2018-01-28T13:38:13.408Z,26.39
2018-01-28T13:40:41.135Z,27.15
2018-01-28T13:43:08.674Z,26.73
2018-01-28T13:45:36.374Z,26.58
2018-01-28T13:48:04.082Z,28.05
2018-01-28T13:50:31.702Z,27.68
2018-01-28T13:52:59.426Z,27.70
2018-01-28T13:55:27.034Z,26.44
2018-01-28T13:57:54.565Z,26.50
2018-01-28T14:00:22.121Z,26.38
2018-01-28T14:02:49.657Z,26.37
2018-01-28T14:05:17.353Z,26.28
2018-01-28T14:07:44.894Z,26.90
2018-01-28T14:10:12.437Z,26.97
2018-01-28T14:12:40.166Z,26.76
2018-01-28T14:15:07.839Z,27.12
2018-01-28T14:17:35.430Z,28.28
2018-01-28T14:20:03.100Z,28.18
2018-01-28T14:22:31.692Z,28.79
2018-01-28T14:24:59.251Z,28.80
2018-01-28T14:27:27.781Z,28.36
2018-01-28T14:29:55.353Z,29.16
2018-01-28T14:32:24.019Z,28.59
2018-01-28T14:34:52.204Z,28.60
2018-01-28T14:37:20.851Z,29.83
2018-01-28T14:39:48.727Z,29.97
2018-01-28T14:42:16.281Z,30.56
2018-01-28T14:44:43.850Z,31.67
2018-01-28T14:47:11.507Z,32.91
2018-01-28T14:49:39.042Z,32.07
2018-01-28T14:52:06.586Z,33.85
2018-01-28T14:54:34.174Z,34.77
2018-01-28T14:57:01.787Z,35.24
2018-01-28T14:59:29.407Z,37.12
2018-01-28T15:01:56.966Z,38.67
2018-01-28T15:04:24.526Z,40.68
2018-01-28T15:06:52.065Z,42.66
2018-01-28T15:09:19.667Z,43.99
2018-01-28T15:11:47.214Z,46.12
2018-01-28T15:14:14.987Z,47.31
2018-01-28T15:16:42.537Z,48.04
2018-01-28T15:19:10.148Z,49.89
2018-01-28T15:21:37.938Z,51.01
2018-01-28T15:24:05.478Z,51.98
2018-01-28T15:26:33.017Z,52.91
2018-01-28T15:29:00.567Z,55.34
2018-01-28T15:31:28.128Z,55.97
2018-01-28T15:33:55.874Z,56.79
2018-01-28T15:36:23.418Z,57.04
2018-01-28T15:38:50.965Z,57.55
2018-01-28T15:41:18.518Z,58.22
2018-01-28T15:43:46.135Z,58.14
2018-01-28T15:46:13.749Z,59.29
2018-01-28T15:48:41.374Z,59.91
2018-01-28T15:51:08.989Z,59.48
2018-01-28T15:53:36.619Z,60.23
2018-01-28T15:56:04.206Z,60.60
2018-01-28T15:58:31.810Z,60.73
2018-01-28T16:00:59.378Z,60.65
2018-01-28T16:03:26.930Z,61.18
2018-01-28T16:05:54.518Z,62.03
2018-01-28T16:08:22.313Z,62.22
2018-01-28T16:10:50.131Z,62.48
2018-01-28T16:13:17.850Z,62.53
2018-01-28T16:15:45.386Z,61.21
2018-01-28T16:18:12.926Z,61.08
2018-01-28T16:20:40.608Z,63.13
2018-01-28T16:23:08.197Z,64.08
2018-01-28T16:25:35.777Z,64.66
2018-01-28T16:28:03.327Z,64.92
2018-01-28T16:30:30.874Z,64.56
2018-01-28T16:32:58.418Z,64.67
2018-01-28T16:35:26.208Z,64.69
2018-01-28T16:37:53.930Z,64.64
2018-01-28T16:40:21.749Z,64.60
2018-01-28T16:42:49.504Z,65.19
2018-01-28T16:45:17.085Z,65.57
2018-01-28T16:47:44.701Z,65.52
2018-01-28T16:50:12.269Z,65.93
2018-01-28T16:52:39.825Z,66.43
2018-01-28T16:55:07.413Z,66.92
2018-01-28T16:57:35.070Z,67.01
2018-01-28T17:00:02.888Z,66.90
2018-01-28T17:02:30.616Z,67.13
2018-01-28T17:04:58.324Z,66.64
2018-01-28T17:07:25.985Z,67.21
2018-01-28T17:09:53.551Z,67.04
2018-01-28T17:12:21.379Z,67.88
2018-01-28T17:14:49.100Z,68.59
2018-01-28T17:17:16.916Z,68.83
2018-01-28T17:19:44.528Z,69.83
2018-01-28T17:22:12.176Z,70.01
2018-01-28T17:24:39.802Z,69.61
2018-01-28T17:27:07.568Z,69.93
2018-01-28T17:29:35.134Z,70.20
2018-01-28T17:32:02.815Z,70.07
2018-01-28T17:34:30.389Z,70.21
2018-01-28T17:36:57.999Z,70.62
2018-01-28T17:39:25.657Z,70.35
2018-01-28T17:41:53.396Z,71.13
2018-01-28T17:44:21.213Z,70.89
2018-01-28T17:46:48.823Z,70.90
2018-01-28T17:49:16.440Z,69.93
2018-01-28T17:51:44.059Z,69.82
2018-01-28T17:54:11.617Z,70.04
2018-01-28T17:56:39.175Z,69.68
2018-01-28T17:59:06.732Z,69.20
2018-01-28T18:01:34.324Z,69.64
2018-01-28T18:04:01.954Z,69.37
2018-01-28T18:06:29.534Z,70.13
2018-01-28T18:08:57.090Z,70.39
2018-01-28T18:11:24.818Z,71.17
2018-01-28T18:13:52.416Z,70.55
2018-01-28T18:16:19.978Z,69.79
2018-01-28T18:18:47.560Z,69.41
2018-01-28T18:21:15.380Z,69.81
2018-01-28T18:23:42.910Z,68.74
2018-01-28T18:26:10.623Z,69.19
2018-01-28T18:28:38.232Z,69.38
2018-01-28T18:31:05.806Z,69.84
2018-01-28T18:33:33.354Z,69.67
2018-01-28T18:36:00.959Z,69.86
2018-01-28T18:38:28.546Z,69.62
2018-01-28T18:40:56.327Z,69.83
2018-01-28T18:43:24.110Z,69.97
2018-01-28T18:45:51.831Z,70.95
2018-01-28T18:48:19.371Z,72.03
2018-01-28T18:50:47.018Z,72.89
2018-01-28T18:53:14.813Z,72.71
2018-01-28T18:55:42.442Z,73.47
2018-01-28T18:58:10.055Z,74.01
2018-01-28T19:00:37.767Z,74.49
2018-01-28T19:03:05.362Z,75.02
2018-01-28T19:05:32.910Z,74.89
2018-01-28T19:08:00.510Z,74.42
2018-01-28T19:10:28.130Z,75.06
2018-01-28T19:12:55.778Z,75.23
2018-01-28T19:15:23.373Z,75.09
2018-01-28T19:17:51.108Z,74.92
2018-01-28T19:20:18.883Z,74.64
2018-01-28T19:22:46.599Z,74.85
2018-01-28T19:25:14.150Z,75.71
2018-01-28T19:27:41.770Z,75.79
2018-01-28T19:30:09.498Z,75.98
2018-01-28T19:32:37.109Z,75.81
2018-01-28T19:35:04.694Z,75.46
2018-01-28T19:37:32.436Z,75.28
2018-01-28T19:39:59.973Z,74.90
2018-01-28T19:42:27.529Z,75.03
2018-01-28T19:44:55.188Z,74.76
2018-01-28T19:47:22.915Z,74.75
2018-01-28T19:49:50.498Z,74.73
2018-01-28T19:52:18.144Z,75.07
2018-01-28T19:54:45.713Z,74.91
2018-01-28T19:57:13.249Z,75.36
2018-01-28T19:59:40.798Z,74.74
2018-01-28T20:02:08.372Z,74.38
2018-01-28T20:04:35.922Z,73.40
2018-01-28T20:07:03.474Z,73.25
2018-01-28T20:09:31.056Z,73.60
2018-01-28T20:11:58.785Z,73.91
2018-01-28T20:14:26.379Z,74.54
2018-01-28T20:16:54.119Z,75.64
2018-01-28T20:19:21.668Z,76.96
2018-01-28T20:21:49.229Z,77.08
2018-01-28T20:24:16.786Z,77.32
2018-01-28T20:26:44.384Z,77.24
2018-01-28T20:29:11.958Z,77.58
2018-01-28T20:31:39.661Z,77.67
2018-01-28T20:34:07.445Z,77.31
2018-01-28T20:36:34.998Z,77.17
2018-01-28T20:39:02.620Z,76.31
2018-01-28T20:41:30.167Z,75.12
2018-01-28T20:43:57.808Z,74.78
2018-01-28T20:46:25.375Z,75.75
2018-01-28T20:48:53.159Z,76.53
2018-01-28T20:51:20.762Z,76.04
2018-01-28T20:53:48.302Z,76.09
2018-01-28T20:56:15.846Z,77.38
2018-01-28T20:58:43.530Z,78.63
2018-01-28T21:01:11.253Z,79.26
2018-01-28T21:03:38.964Z,79.21
2018-01-28T21:06:06.509Z,78.32
2018-01-28T21:08:34.055Z,78.37
2018-01-28T21:11:01.812Z,78.68
2018-01-28T21:13:29.529Z,78.38
2018-01-28T21:15:57.118Z,77.17
2018-01-28T21:18:24.771Z,76.53
2018-01-28T21:20:52.318Z,77.25
2018-01-28T21:23:19.875Z,76.96
2018-01-28T21:25:47.526Z,76.79
2018-01-28T21:28:15.110Z,77.22
2018-01-28T21:30:42.855Z,77.78
2018-01-28T21:33:10.678Z,78.94
2018-01-28T21:35:38.237Z,78.93
2018-01-28T21:38:05.963Z,78.38
2018-01-28T21:40:33.541Z,78.70
2018-01-28T21:43:01.089Z,78.64
2018-01-28T21:45:28.632Z,78.87
2018-01-28T21:47:56.276Z,78.90
2018-01-28T21:50:23.816Z,78.87
2018-01-28T21:52:51.617Z,78.70
2018-01-28T21:55:19.334Z,78.44
2018-01-28T21:57:46.899Z,78.00
2018-01-28T22:00:14.494Z,77.99
2018-01-28T22:02:42.239Z,78.06
2018-01-28T22:05:09.822Z,78.41
2018-01-28T22:07:37.358Z,77.97
2018-01-28T22:10:04.910Z,78.23
2018-01-28T22:12:32.469Z,78.34
2018-01-28T22:15:00.276Z,77.71
2018-01-28T22:17:27.889Z,77.84
2018-01-28T22:19:55.612Z,76.43
2018-01-28T22:22:23.161Z,76.43
2018-01-28T22:24:50.713Z,76.49
2018-01-28T22:27:18.258Z,77.13
2018-01-28T22:29:45.882Z,78.07
2018-01-28T22:32:13.518Z,78.50
2018-01-28T22:34:41.228Z,78.33
2018-01-28T22:37:08.782Z,77.37
2018-01-28T22:39:36.518Z,77.98
2018-01-28T22:42:04.232Z,78.18
2018-01-28T22:44:31.898Z,78.57
2018-01-28T22:46:59.466Z,78.86
2018-01-28T22:49:27.016Z,78.60
2018-01-28T22:51:54.566Z,80.15
2018-01-28T22:54:22.132Z,79.51
2018-01-28T22:56:49.718Z,79.24
2018-01-28T22:59:17.497Z,80.47
2018-01-28T23:01:45.071Z,81.35
2018-01-28T23:04:12.801Z,80.18
2018-01-28T23:06:40.335Z,78.82
2018-01-28T23:09:08.170Z,78.40
2018-01-28T23:11:35.708Z,78.72
2018-01-28T23:14:03.407Z,79.26
2018-01-28T23:16:30.962Z,79.07
2018-01-28T23:18:58.539Z,79.39
2018-01-28T23:21:26.131Z,80.44
2018-01-28T23:23:53.745Z,80.78
2018-01-28T23:26:21.289Z,80.85
2018-01-28T23:28:48.868Z,80.71
2018-01-28T23:31:16.531Z,80.57
2018-01-28T23:33:44.123Z,80.11
2018-01-28T23:36:11.670Z,80.44
2018-01-28T23:38:39.290Z,79.92
2018-01-28T23:41:06.994Z,79.98
2018-01-28T23:43:34.609Z,80.32
2018-01-28T23:46:02.198Z,78.94
2018-01-28T23:48:29.734Z,79.09
2018-01-28T23:50:57.590Z,79.21
2018-01-28T23:53:25.133Z,79.83
2018-01-28T23:55:52.810Z,80.80
2018-01-28T23:58:20.396Z,81.57
